createdAt,value
2022-10-07T00:01:12.223Z,3.90
2022-10-07T00:03:42.243Z,3.77
2022-10-07T00:06:15.175Z,3.80
2022-10-07T00:08:46.185Z,4.43
2022-10-07T00:11:16.890Z,4.37
2022-10-07T00:13:47.407Z,4.83
2022-10-07T00:16:19.094Z,5.07
2022-10-07T00:18:52.147Z,4.80
2022-10-07T00:21:21.183Z,4.23
2022-10-07T00:23:49.689Z,3.90
2022-10-07T00:26:21.241Z,3.17
2022-10-07T00:28:50.553Z,2.50
2022-10-07T00:31:22.863Z,2.70
2022-10-07T00:33:53.188Z,3.10
2022-10-07T00:36:24.240Z,2.87
2022-10-07T00:38:55.968Z,2.60
2022-10-07T00:41:28.365Z,2.60
2022-10-07T00:43:57.425Z,2.77
2022-10-07T00:46:34.614Z,2.63
2022-10-07T00:49:12.054Z,2.90
2022-10-07T00:51:42.373Z,3.30
2022-10-07T00:54:16.465Z,3.20
2022-10-07T00:56:47.487Z,3.80
2022-10-07T00:59:17.585Z,4.43
2022-10-07T01:01:46.234Z,4.33
2022-10-07T01:04:17.209Z,4.40
2022-10-07T01:06:45.990Z,4.60
2022-10-07T01:09:15.689Z,4.67
2022-10-07T01:11:56.949Z,5.67
2022-10-07T01:14:43.836Z,6.63
2022-10-07T01:17:24.014Z,5.80
2022-10-07T01:20:23.809Z,5.43
2022-10-07T01:23:11.606Z,5.33
2022-10-07T01:26:15.686Z,5.00
2022-10-07T01:28:50.636Z,5.17
2022-10-07T01:31:26.274Z,5.10
2022-10-07T01:33:56.003Z,4.60
2022-10-07T01:36:27.283Z,4.80
2022-10-07T01:39:02.991Z,4.80
2022-10-07T01:41:33.195Z,3.97
2022-10-07T01:44:03.888Z,4.33
2022-10-07T01:46:36.037Z,4.20
2022-10-07T01:49:05.209Z,3.77
2022-10-07T01:51:40.788Z,4.23
2022-10-07T01:54:27.856Z,3.83
2022-10-07T01:57:14.407Z,3.47
2022-10-07T02:00:07.456Z,3.60
2022-10-07T02:03:38.184Z,3.90
2022-10-07T02:06:20.808Z,2.60
2022-10-07T02:08:54.639Z,2.40
2022-10-07T02:11:27.730Z,2.70
2022-10-07T02:14:13.186Z,2.67
2022-10-07T02:16:47.876Z,2.10
2022-10-07T02:19:22.944Z,2.27
2022-10-07T02:21:57.138Z,2.27
2022-10-07T02:24:30.159Z,3.00
2022-10-07T02:27:04.344Z,3.00
2022-10-07T02:29:38.017Z,3.27
2022-10-07T02:32:12.201Z,3.47
2022-10-07T02:34:45.902Z,2.53
2022-10-07T02:37:21.575Z,3.00
2022-10-07T02:39:49.669Z,2.93
2022-10-07T02:42:28.040Z,2.93
2022-10-07T02:45:02.486Z,2.67
2022-10-07T02:47:42.292Z,3.00
2022-10-07T02:50:17.126Z,3.03
2022-10-07T02:52:47.743Z,2.47
2022-10-07T02:55:22.677Z,2.70
2022-10-07T02:57:58.514Z,2.63
2022-10-07T03:00:29.320Z,2.47
2022-10-07T03:03:02.762Z,2.60
2022-10-07T03:05:54.563Z,2.50
2022-10-07T03:08:24.985Z,2.90
2022-10-07T03:10:53.677Z,3.47
2022-10-07T03:13:22.296Z,3.43
2022-10-07T03:15:54.352Z,3.63
2022-10-07T03:18:28.509Z,3.80
2022-10-07T03:21:16.088Z,2.90
2022-10-07T03:23:44.430Z,2.63
2022-10-07T03:26:13.499Z,3.50
2022-10-07T03:28:41.633Z,3.30
2022-10-07T03:31:14.261Z,3.70
2022-10-07T03:33:48.690Z,3.10
2022-10-07T03:36:16.814Z,2.93
2022-10-07T03:38:47.266Z,4.10
2022-10-07T03:41:16.436Z,3.40
2022-10-07T03:43:45.132Z,3.80
2022-10-07T03:46:16.716Z,3.43
2022-10-07T03:48:45.535Z,2.80
2022-10-07T03:51:15.112Z,3.37
2022-10-07T03:53:43.255Z,4.17
2022-10-07T03:56:12.248Z,3.87
2022-10-07T03:58:42.987Z,4.10
2022-10-07T04:01:15.012Z,4.13
2022-10-07T04:03:52.472Z,3.90
2022-10-07T04:06:22.566Z,4.40
2022-10-07T04:08:53.446Z,4.37
2022-10-07T04:11:22.319Z,4.07
2022-10-07T04:13:53.662Z,4.23
2022-10-07T04:16:24.129Z,4.30
2022-10-07T04:18:56.748Z,4.10
2022-10-07T04:21:28.228Z,3.27
2022-10-07T04:23:56.305Z,4.00
2022-10-07T04:26:24.489Z,4.03
2022-10-07T04:28:52.771Z,3.83
2022-10-07T04:31:23.800Z,3.80
2022-10-07T04:33:58.450Z,3.90
2022-10-07T04:36:33.815Z,3.53
2022-10-07T04:39:48.976Z,4.07
2022-10-07T04:42:30.311Z,3.70
2022-10-07T04:44:58.609Z,4.20
2022-10-07T04:47:26.965Z,3.70
2022-10-07T04:49:55.212Z,4.27
2022-10-07T04:52:26.606Z,3.60
2022-10-07T04:54:55.112Z,3.90
2022-10-07T04:57:23.582Z,3.53
2022-10-07T04:59:52.842Z,3.37
2022-10-07T05:02:23.113Z,3.93
2022-10-07T05:04:51.272Z,3.50
2022-10-07T05:07:19.605Z,3.57
2022-10-07T05:09:49.219Z,3.63
2022-10-07T05:12:18.217Z,3.63
2022-10-07T05:14:47.671Z,3.37
2022-10-07T05:17:16.782Z,4.10
2022-10-07T05:19:45.354Z,3.80
2022-10-07T05:22:13.508Z,3.57
2022-10-07T05:24:42.673Z,4.00
2022-10-07T05:27:14.843Z,3.30
2022-10-07T05:29:43.916Z,3.87
2022-10-07T05:32:12.163Z,3.47
2022-10-07T05:34:40.350Z,3.77
2022-10-07T05:37:08.554Z,4.03
2022-10-07T05:39:36.687Z,3.57
2022-10-07T05:42:14.805Z,4.30
2022-10-07T05:44:50.780Z,4.10
2022-10-07T05:47:20.485Z,4.13
2022-10-07T05:49:49.684Z,5.00
2022-10-07T05:52:21.049Z,4.77
2022-10-07T05:54:50.787Z,4.63
2022-10-07T05:57:20.423Z,3.63
2022-10-07T05:59:49.514Z,3.07
2022-10-07T06:02:19.195Z,3.47
2022-10-07T06:04:50.175Z,3.57
2022-10-07T06:07:21.443Z,4.03
2022-10-07T06:10:11.466Z,3.33
2022-10-07T06:12:59.994Z,3.13
2022-10-07T06:15:28.219Z,3.50
2022-10-07T06:17:56.610Z,4.20
2022-10-07T06:20:25.023Z,3.90
2022-10-07T06:22:55.303Z,3.90
2022-10-07T06:25:23.440Z,3.63
2022-10-07T06:27:57.260Z,3.90
2022-10-07T06:30:29.292Z,3.70
2022-10-07T06:32:57.799Z,3.77
2022-10-07T06:35:26.236Z,4.03
2022-10-07T06:37:55.695Z,4.23
2022-10-07T06:40:23.879Z,4.13
2022-10-07T06:42:54.126Z,4.83
2022-10-07T06:45:32.419Z,4.10
2022-10-07T06:48:01.511Z,4.97
2022-10-07T06:50:30.513Z,4.03
2022-10-07T06:52:58.815Z,4.20
2022-10-07T06:55:28.139Z,3.97
2022-10-07T06:57:58.935Z,4.17
2022-10-07T07:00:27.917Z,3.87
2022-10-07T07:02:56.833Z,4.57
2022-10-07T07:05:25.132Z,4.75
2022-10-07T07:07:53.591Z,4.57
2022-10-07T07:10:21.806Z,5.37
2022-10-07T07:12:54.549Z,5.70
2022-10-07T07:15:24.491Z,5.50
2022-10-07T07:17:52.664Z,5.20
2022-10-07T07:20:21.487Z,5.68
2022-10-07T07:22:52.309Z,5.10
2022-10-07T07:25:20.542Z,5.50
2022-10-07T07:27:52.459Z,4.95
2022-10-07T07:30:25.108Z,5.80
2022-10-07T07:32:56.477Z,6.57
2022-10-07T07:35:25.938Z,11.50
2022-10-07T07:37:55.133Z,5.18
2022-10-07T07:40:23.363Z,8.10
2022-10-07T07:42:51.568Z,5.80
2022-10-07T07:45:19.834Z,5.10
2022-10-07T07:47:49.557Z,4.87
2022-10-07T07:50:20.810Z,5.78
2022-10-07T07:52:51.893Z,4.50
2022-10-07T07:55:24.528Z,4.78
2022-10-07T07:57:52.667Z,5.57
2022-10-07T08:00:20.909Z,5.40
2022-10-07T08:03:05.182Z,5.03
2022-10-07T08:05:36.385Z,5.10
2022-10-07T08:08:04.895Z,5.72
2022-10-07T08:10:33.139Z,4.75
2022-10-07T08:13:01.218Z,4.28
2022-10-07T08:15:29.416Z,5.13
2022-10-07T08:17:57.565Z,5.40
2022-10-07T08:20:27.078Z,5.65
2022-10-07T08:22:58.922Z,5.45
2022-10-07T08:25:29.503Z,6.63
2022-10-07T08:27:58.814Z,6.68
2022-10-07T08:30:27.489Z,9.40
2022-10-07T08:33:00.399Z,6.13
2022-10-07T08:35:30.757Z,5.90
2022-10-07T08:37:58.870Z,6.28
2022-10-07T08:40:27.187Z,6.18
2022-10-07T08:42:55.528Z,5.60
2022-10-07T08:45:31.834Z,5.82
2022-10-07T08:48:04.214Z,6.45
2022-10-07T08:50:50.420Z,6.95
2022-10-07T08:53:27.288Z,6.68
2022-10-07T08:56:01.732Z,6.15
2022-10-07T08:58:55.941Z,5.30
2022-10-07T09:01:45.368Z,7.25
2022-10-07T09:04:32.981Z,7.50
2022-10-07T09:07:10.544Z,5.82
2022-10-07T09:09:43.740Z,5.53
2022-10-07T09:12:22.789Z,10.30
2022-10-07T09:14:56.579Z,6.65
2022-10-07T09:17:35.052Z,7.45
2022-10-07T09:20:16.401Z,5.50
2022-10-07T09:22:54.839Z,9.27
2022-10-07T09:25:26.183Z,6.05
2022-10-07T09:27:54.840Z,4.82
2022-10-07T09:30:24.203Z,4.78
2022-10-07T09:32:55.697Z,7.55
2022-10-07T09:35:26.947Z,6.15
2022-10-07T09:38:03.288Z,6.80
2022-10-07T09:41:00.643Z,5.47
2022-10-07T09:43:30.745Z,11.27
2022-10-07T09:46:00.641Z,12.80
2022-10-07T09:48:32.625Z,6.95
2022-10-07T09:51:15.378Z,6.20
2022-10-07T09:53:59.990Z,7.20
2022-10-07T09:56:39.682Z,5.85
2022-10-07T09:59:20.496Z,5.63
2022-10-07T10:01:54.762Z,5.03
2022-10-07T10:04:33.433Z,6.22
2022-10-07T10:07:07.013Z,5.60
2022-10-07T10:09:36.682Z,8.95
2022-10-07T10:12:17.324Z,6.90
2022-10-07T10:14:49.917Z,6.68
2022-10-07T10:17:34.556Z,6.88
2022-10-07T10:20:39.444Z,4.93
2022-10-07T10:23:30.908Z,3.30
2022-10-07T10:26:31.123Z,2.90
2022-10-07T10:29:13.728Z,3.28
2022-10-07T10:32:04.457Z,2.90
2022-10-07T10:34:42.585Z,2.20
2022-10-07T10:37:18.404Z,2.55
2022-10-07T10:40:03.005Z,2.90
2022-10-07T10:42:45.380Z,2.53
2022-10-07T10:45:35.489Z,2.00
2022-10-07T10:48:30.026Z,2.25
2022-10-07T10:51:11.778Z,2.00
2022-10-07T10:53:57.120Z,2.70
2022-10-07T10:56:38.030Z,2.85
2022-10-07T10:59:34.334Z,2.47
2022-10-07T11:02:31.393Z,2.50
2022-10-07T11:05:06.281Z,2.53
2022-10-07T11:07:40.410Z,2.50
2022-10-07T11:10:21.093Z,2.17
2022-10-07T11:12:56.881Z,2.10
2022-10-07T11:15:31.388Z,2.38
2022-10-07T11:18:07.822Z,1.80
2022-10-07T11:20:44.843Z,2.22
2022-10-07T11:23:23.459Z,2.42
2022-10-07T11:25:58.257Z,2.80
2022-10-07T11:28:30.545Z,2.17
2022-10-07T11:31:10.001Z,2.50
2022-10-07T11:33:47.347Z,2.47
2022-10-07T11:36:21.640Z,2.15
2022-10-07T11:38:53.538Z,2.55
2022-10-07T11:41:30.886Z,2.33
2022-10-07T11:44:04.650Z,2.40
2022-10-07T11:46:40.645Z,2.22
2022-10-07T11:49:18.113Z,2.33
2022-10-07T11:52:00.476Z,1.88
2022-10-07T11:54:39.244Z,2.35
2022-10-07T11:57:07.910Z,1.95
2022-10-07T11:59:46.179Z,2.08
2022-10-07T12:02:49.104Z,2.30
2022-10-07T12:05:58.823Z,2.38
2022-10-07T12:08:36.500Z,2.35
2022-10-07T12:11:50.491Z,2.30
2022-10-07T12:14:36.349Z,2.42
2022-10-07T12:17:28.178Z,2.05
2022-10-07T12:20:47.700Z,2.50
2022-10-07T12:23:44.396Z,2.30
2022-10-07T12:26:48.689Z,2.80
2022-10-07T12:29:49.242Z,2.70
2022-10-07T12:33:01.416Z,2.58
2022-10-07T12:35:54.199Z,2.20
2022-10-07T12:38:27.086Z,1.83
2022-10-07T12:41:25.534Z,2.70
2022-10-07T12:44:08.155Z,1.90
2022-10-07T12:46:47.723Z,1.85
2022-10-07T12:49:26.143Z,2.05
2022-10-07T12:51:58.800Z,1.80
2022-10-07T12:54:33.640Z,2.35
2022-10-07T12:57:03.660Z,2.20
2022-10-07T12:59:57.700Z,2.10
2022-10-07T13:03:27.665Z,1.90
2022-10-07T13:06:42.846Z,2.00
2022-10-07T13:10:02.309Z,2.25
2022-10-07T13:12:48.418Z,2.15
2022-10-07T13:15:33.805Z,1.98
2022-10-07T13:18:16.472Z,1.98
2022-10-07T13:21:13.467Z,2.28
2022-10-07T13:23:41.669Z,2.33
2022-10-07T13:26:14.747Z,1.77
2022-10-07T13:28:50.116Z,2.10
2022-10-07T13:31:23.573Z,1.90
2022-10-07T13:33:53.259Z,2.22
2022-10-07T13:36:24.916Z,2.15
2022-10-07T13:38:54.965Z,2.15
2022-10-07T13:41:28.647Z,1.77
2022-10-07T13:44:02.872Z,1.90
2022-10-07T13:46:35.116Z,2.17
2022-10-07T13:49:04.858Z,2.35
2022-10-07T13:51:36.462Z,1.88
2022-10-07T13:54:07.802Z,2.13
2022-10-07T13:56:43.119Z,2.40
2022-10-07T13:59:18.024Z,2.30
2022-10-07T14:01:49.688Z,2.05
2022-10-07T14:04:26.054Z,2.15
2022-10-07T14:07:00.953Z,2.20
2022-10-07T14:09:45.008Z,2.33
2022-10-07T14:12:21.777Z,2.25
2022-10-07T14:14:55.583Z,2.28
2022-10-07T14:17:33.738Z,1.88
2022-10-07T14:20:05.666Z,2.83
2022-10-07T14:22:41.003Z,2.40
2022-10-07T14:25:21.409Z,2.30
2022-10-07T14:28:15.986Z,2.55
2022-10-07T14:31:04.180Z,2.40
2022-10-07T14:34:06.178Z,2.35
2022-10-07T14:36:36.007Z,2.03
2022-10-07T14:39:23.376Z,2.53
2022-10-07T14:41:51.828Z,2.28
2022-10-07T14:44:21.679Z,2.30
2022-10-07T14:46:49.897Z,2.30
2022-10-07T14:49:18.228Z,7.10
2022-10-07T14:51:47.860Z,5.28
2022-10-07T14:54:16.053Z,2.72
2022-10-07T14:56:44.250Z,5.07
2022-10-07T14:59:15.821Z,6.85
2022-10-07T15:01:45.357Z,9.35
2022-10-07T15:04:13.513Z,3.25
2022-10-07T15:06:41.864Z,9.95
2022-10-07T15:09:13.403Z,4.18
2022-10-07T15:11:42.292Z,5.70
2022-10-07T15:14:12.091Z,3.88
2022-10-07T15:16:41.557Z,3.35
2022-10-07T15:19:11.124Z,3.42
2022-10-07T15:21:39.243Z,3.35
2022-10-07T15:24:07.759Z,2.17
2022-10-07T15:26:35.871Z,3.63
2022-10-07T15:29:07.820Z,6.97
2022-10-07T15:31:37.932Z,8.20
2022-10-07T15:34:06.332Z,7.18
2022-10-07T15:36:35.933Z,9.60
2022-10-07T15:39:04.791Z,10.50
2022-10-07T15:41:36.488Z,6.57
2022-10-07T15:44:10.626Z,4.20
2022-10-07T15:46:38.839Z,5.40
2022-10-07T15:49:07.546Z,3.67
2022-10-07T15:51:37.247Z,3.67
2022-10-07T15:54:07.447Z,3.50
2022-10-07T15:56:35.708Z,3.50
2022-10-07T15:59:04.458Z,3.35
2022-10-07T16:01:33.020Z,3.15
2022-10-07T16:04:03.345Z,3.33
2022-10-07T16:06:35.084Z,3.63
2022-10-07T16:09:06.639Z,4.47
2022-10-07T16:11:35.789Z,4.25
2022-10-07T16:14:04.656Z,4.95
2022-10-07T16:16:33.735Z,5.95
2022-10-07T16:19:02.109Z,5.10
2022-10-07T16:21:33.037Z,4.20
2022-10-07T16:24:06.354Z,5.05
2022-10-07T16:26:37.445Z,4.35
2022-10-07T16:29:26.242Z,6.25
2022-10-07T16:31:58.948Z,9.73
2022-10-07T16:34:29.062Z,7.50
2022-10-07T16:36:58.743Z,8.13
2022-10-07T16:39:28.381Z,8.23
2022-10-07T16:41:56.829Z,8.25
2022-10-07T16:44:25.628Z,7.60
2022-10-07T16:46:56.740Z,6.90
2022-10-07T16:49:27.391Z,7.97
2022-10-07T16:51:56.382Z,7.70
2022-10-07T16:54:25.096Z,7.65
2022-10-07T16:56:54.541Z,8.50
2022-10-07T16:59:25.269Z,10.20
2022-10-07T17:01:56.484Z,10.30
2022-10-07T17:04:25.802Z,8.82
2022-10-07T17:06:54.247Z,7.20
2022-10-07T17:09:24.514Z,7.30
2022-10-07T17:11:53.994Z,7.35
2022-10-07T17:14:23.793Z,7.82
2022-10-07T17:16:56.608Z,7.20
2022-10-07T17:19:27.578Z,8.25
2022-10-07T17:21:58.467Z,6.97
2022-10-07T17:24:26.692Z,6.78
2022-10-07T17:26:56.789Z,6.45
2022-10-07T17:29:26.621Z,5.60
2022-10-07T17:31:55.111Z,5.85
2022-10-07T17:34:23.874Z,5.40
2022-10-07T17:36:52.257Z,5.30
2022-10-07T17:39:20.681Z,4.63
2022-10-07T17:41:49.024Z,4.88
2022-10-07T17:44:18.900Z,4.65
2022-10-07T17:46:48.830Z,5.75
2022-10-07T17:49:17.047Z,5.55
2022-10-07T17:51:45.373Z,5.18
2022-10-07T17:54:15.073Z,4.72
2022-10-07T17:56:47.657Z,6.75
2022-10-07T17:59:18.015Z,5.13
2022-10-07T18:01:46.281Z,4.25
2022-10-07T18:04:22.538Z,4.28
2022-10-07T18:06:53.059Z,4.20
2022-10-07T18:09:24.063Z,3.78
2022-10-07T18:12:09.829Z,4.30
2022-10-07T18:14:56.945Z,5.60
2022-10-07T18:17:25.278Z,4.50
2022-10-07T18:19:53.736Z,5.00
2022-10-07T18:22:22.355Z,3.97
2022-10-07T18:24:50.671Z,4.75
2022-10-07T18:27:21.631Z,4.32
2022-10-07T18:29:51.241Z,4.47
2022-10-07T18:32:19.386Z,4.53
2022-10-07T18:34:48.619Z,5.13
2022-10-07T18:37:16.838Z,4.90
2022-10-07T18:39:45.059Z,4.35
2022-10-07T18:42:13.501Z,4.82
2022-10-07T18:44:41.623Z,7.72
2022-10-07T18:47:11.145Z,13.73
2022-10-07T18:49:39.252Z,9.23
2022-10-07T18:52:07.373Z,10.98
2022-10-07T18:54:35.501Z,11.57
2022-10-07T18:57:03.672Z,11.52
2022-10-07T18:59:31.764Z,11.93
2022-10-07T19:01:59.943Z,11.77
2022-10-07T19:04:31.067Z,19.27
2022-10-07T19:06:59.216Z,19.48
2022-10-07T19:09:27.301Z,20.50
2022-10-07T19:11:55.706Z,21.02
2022-10-07T19:14:25.834Z,17.98
2022-10-07T19:16:54.442Z,19.42
2022-10-07T19:19:25.690Z,19.35
2022-10-07T19:21:56.218Z,21.75
2022-10-07T19:24:45.522Z,23.00
2022-10-07T19:27:14.202Z,21.63
2022-10-07T19:29:42.367Z,21.42
2022-10-07T19:32:10.586Z,23.08
2022-10-07T19:34:38.728Z,19.35
2022-10-07T19:37:08.252Z,20.45
2022-10-07T19:39:36.813Z,17.55
2022-10-07T19:42:05.370Z,19.65
2022-10-07T19:44:33.514Z,17.10
2022-10-07T19:47:02.804Z,17.92
2022-10-07T19:49:30.980Z,18.25
2022-10-07T19:51:59.113Z,17.23
2022-10-07T19:54:30.365Z,16.75
2022-10-07T19:56:58.441Z,16.98
2022-10-07T19:59:26.756Z,15.90
2022-10-07T20:01:58.851Z,15.85
2022-10-07T20:04:32.051Z,15.27
2022-10-07T20:07:00.117Z,14.50
2022-10-07T20:09:29.713Z,14.93
2022-10-07T20:11:57.782Z,13.27
2022-10-07T20:14:25.986Z,13.18
2022-10-07T20:16:56.517Z,12.85
2022-10-07T20:19:25.150Z,12.40
2022-10-07T20:21:53.431Z,13.23
2022-10-07T20:24:21.558Z,12.13
2022-10-07T20:26:51.001Z,11.77
2022-10-07T20:29:24.095Z,12.38
2022-10-07T20:31:53.851Z,11.20
2022-10-07T20:34:22.212Z,11.32
2022-10-07T20:36:50.513Z,11.13
2022-10-07T20:39:38.751Z,10.35
2022-10-07T20:42:25.398Z,11.13
2022-10-07T20:44:54.489Z,10.07
2022-10-07T20:47:27.978Z,10.38
2022-10-07T20:49:57.883Z,10.82
2022-10-07T20:52:28.570Z,11.15
2022-10-07T20:54:56.761Z,10.75
2022-10-07T20:57:33.127Z,11.20
2022-10-07T21:00:01.423Z,10.40
2022-10-07T21:02:29.650Z,10.68
2022-10-07T21:04:59.239Z,11.65
2022-10-07T21:07:27.704Z,11.68
2022-10-07T21:09:58.779Z,12.93
2022-10-07T21:12:28.225Z,11.18
2022-10-07T21:15:00.389Z,12.68
2022-10-07T21:17:28.470Z,13.38
2022-10-07T21:19:56.802Z,13.45
2022-10-07T21:22:25.427Z,12.70
2022-10-07T21:24:53.581Z,12.38
2022-10-07T21:27:21.709Z,13.00
2022-10-07T21:29:51.138Z,12.05
2022-10-07T21:32:19.404Z,11.75
2022-10-07T21:34:47.483Z,11.13
2022-10-07T21:37:15.602Z,12.00
2022-10-07T21:39:43.729Z,12.00
2022-10-07T21:42:11.907Z,11.75
2022-10-07T21:44:40.096Z,11.85
2022-10-07T21:47:09.576Z,11.52
2022-10-07T21:49:37.698Z,11.73
2022-10-07T21:52:05.910Z,11.77
2022-10-07T21:54:33.976Z,13.32
2022-10-07T21:57:04.450Z,12.02
2022-10-07T21:59:35.001Z,12.77
2022-10-07T22:02:03.194Z,12.52
2022-10-07T22:04:32.792Z,13.68
2022-10-07T22:07:18.806Z,13.73
2022-10-07T22:09:46.931Z,13.43
2022-10-07T22:12:15.467Z,14.50
2022-10-07T22:14:44.501Z,13.75
2022-10-07T22:17:14.204Z,14.93
2022-10-07T22:19:43.692Z,13.88
2022-10-07T22:22:12.855Z,13.73
2022-10-07T22:24:41.839Z,13.93
2022-10-07T22:27:10.255Z,14.38
2022-10-07T22:29:38.527Z,13.50
2022-10-07T22:32:06.722Z,12.93
2022-10-07T22:34:52.317Z,12.82
2022-10-07T22:37:21.882Z,12.70
2022-10-07T22:39:50.079Z,12.18
2022-10-07T22:42:18.334Z,13.30
2022-10-07T22:44:46.438Z,11.95
2022-10-07T22:47:16.272Z,11.60
2022-10-07T22:49:44.932Z,12.95
2022-10-07T22:52:13.037Z,14.00
2022-10-07T22:54:42.576Z,14.13
2022-10-07T22:57:10.675Z,12.85
2022-10-07T22:59:38.835Z,13.98
2022-10-07T23:02:09.194Z,14.55
2022-10-07T23:04:37.349Z,13.98
2022-10-07T23:07:05.453Z,12.88
2022-10-07T23:09:33.527Z,14.75
2022-10-07T23:12:04.591Z,12.73
2022-10-07T23:14:32.877Z,14.25
2022-10-07T23:17:01.027Z,13.30
2022-10-07T23:19:29.132Z,14.48
2022-10-07T23:21:57.232Z,12.97
2022-10-07T23:24:28.173Z,13.52
2022-10-07T23:26:56.444Z,14.65
2022-10-07T23:29:26.510Z,14.57
2022-10-07T23:31:54.634Z,14.25
2022-10-07T23:34:23.279Z,15.00
2022-10-07T23:36:55.206Z,15.63
2022-10-07T23:39:23.608Z,15.32
2022-10-07T23:41:51.743Z,14.90
2022-10-07T23:44:19.951Z,14.47
2022-10-07T23:46:51.550Z,15.00
2022-10-07T23:49:22.492Z,14.68
2022-10-07T23:51:50.725Z,14.63
2022-10-07T23:54:18.835Z,13.40
2022-10-07T23:56:46.997Z,14.97
2022-10-07T23:59:15.131Z,14.20
